METAR Data
IDs: Format: Raw Decoded Include TAF

Data at: 0303 UTC 15 Aug 2020

K4R5 150255Z AUTO 19008G15KT 170V230 10SM -RA OVC110 20/16 A2984 RMK AO2 LTG DSNT N T01950157
K4R5 150235Z AUTO 21012G17KT 180V240 10SM VCTS SCT070 OVC100 22/16 A2984 RMK AO2 LTG DSNT S THRU NW T02200163
K4R5 150215Z AUTO 21007KT 7SM -RA SCT070 OVC090 23/18 A2984 RMK AO2 LTG DSNT NW T02300176
K4R5 150155Z AUTO 14007KT 10SM SCT070 SCT095 BKN110 24/17 A2980 RMK AO2 LTG DSNT S AND W T02370172
K4R5 150135Z AUTO 15007KT 10SM SCT110 24/16 A2980 RMK AO2 LTG DSNT W T02420162
K4R5 150115Z AUTO 15007KT 120V180 10SM CLR 24/16 A2980 RMK AO2 LTG DSNT SW AND W T02430155
K4R5 150055Z AUTO 16004KT 10SM CLR 24/16 A2982 RMK AO2 LTG DSNT SW T02410159
K4R5 150035Z AUTO 17003KT 10SM CLR 25/16 A2983 RMK AO2 T02490156
K4R5 150015Z AUTO 18004KT 10SM CLR 25/16 A2983 RMK AO2 T02500157
K4R5 142355Z AUTO 16006KT 10SM CLR 25/17 A2983 RMK AO2 T02530172
K4R5 142335Z AUTO 16003KT 10SM CLR 27/19 A2984 RMK AO2 T02650194
K4R5 142315Z AUTO 00000KT 10SM SCT048 27/21 A2985 RMK AO2 T02650212
K4R5 142255Z AUTO 00000KT 10SM CLR 26/21 A2986 RMK AO2 T02590212
K4R5 142235Z AUTO 01003KT 10SM SCT045 SCT050 25/21 A2986 RMK AO2 T02480207
K4R5 142215Z AUTO 00000KT 10SM BKN045 OVC060 27/21 A2987 RMK AO2 T02680211
K4R5 142155Z AUTO 00000KT 10SM BKN045 BKN060 27/21 A2988 RMK AO2 T02710207
K4R5 142135Z AUTO 18003KT 10SM SCT047 BKN050 27/20 A2987 RMK AO2 T02720204
K4R5 142115Z AUTO 14003KT 10SM CLR 29/21 A2987 RMK AO2 T02850207
K4R5 142055Z AUTO 00000KT 10SM CLR 26/20 A2988 RMK AO2 T02640204
K4R5 142035Z AUTO 00000KT 10SM CLR 27/20 A2988 RMK AO2 T02650203
K4R5 142015Z AUTO 20005KT 10SM CLR 27/20 A2988 RMK AO2 LTG DSNT W T02710202
K4R5 141955Z AUTO 16006KT 10SM CLR 27/20 A2987 RMK AO2 T02710198
K4R5 141935Z AUTO 15008KT 120V200 10SM CLR 28/20 A2985 RMK AO2 T02830204
K4R5 141915Z AUTO 14009G14KT 10SM CLR 28/20 A2985 RMK AO2 T02840196
K4R5 141855Z AUTO 16004KT 10SM CLR 28/19 A2988 RMK AO2 T02820191
K4R5 141835Z AUTO 19008KT 10SM CLR 28/19 A2990 RMK AO2 T02810185
K4R5 141815Z AUTO 20004KT 10SM CLR 27/18 A2992 RMK AO2 T02730182
K4R5 141755Z AUTO 20007KT 160V230 10SM CLR 28/18 A2994 RMK AO2 T02750183
K4R5 141735Z AUTO 21005KT 10SM CLR 27/18 A2995 RMK AO2 T02710181
K4R5 141715Z AUTO 22006KT 10SM CLR 27/18 A2997 RMK AO2 T02700183
K4R5 141655Z AUTO 23007KT 130V270 10SM CLR 27/18 A2997 RMK AO2 T02660182
K4R5 141635Z AUTO 21006KT 10SM CLR 26/19 A2997 RMK AO2 T02580188
K4R5 141615Z AUTO 21005KT 10SM CLR 25/19 A2997 RMK AO2 T02480189
K4R5 141555Z AUTO 21003KT 10SM CLR 24/19 A2997 RMK AO2 T02410185
K4R5 141535Z AUTO 21006KT 10SM CLR 24/18 A2997 RMK AO2 T02430182
K4R5 141515Z AUTO 21005KT 10SM CLR 24/18 A2997 RMK AO2 T02380178
K4R5 141455Z AUTO 19005KT 10SM CLR 23/18 A2996 RMK AO2 T02310175
K4R5 141435Z AUTO 21005KT 10SM CLR 23/18 A2997 RMK AO2 T02250178
K4R5 141415Z AUTO 22007KT 180V250 10SM CLR 22/18 A2997 RMK AO2 T02200179
K4R5 141355Z AUTO 22007KT 10SM CLR 21/18 A2997 RMK AO2 LTG DSNT SW AND W T02130178
K4R5 141335Z AUTO 20005KT 10SM CLR 21/18 A2997 RMK AO2 T02100181
K4R5 141315Z AUTO 18005KT 10SM CLR 20/18 A2996 RMK AO2 T01980177
K4R5 141255Z AUTO 20004KT 10SM CLR 20/18 A2997 RMK AO2 T01980180
K4R5 141235Z AUTO 21003KT 10SM CLR 20/18 A2999 RMK AO2 T01980181
K4R5 141215Z AUTO 00000KT 10SM CLR 20/18 A3000 RMK AO2 T01980181
K4R5 141155Z AUTO 00000KT 10SM CLR 20/18 A2998 RMK AO2 T01970181
K4R5 141135Z AUTO 00000KT 10SM SCT110 21/18 A2998 RMK AO2 T02050181
K4R5 141115Z AUTO 27004KT 10SM BKN110 21/18 A3000 RMK AO2 T02100183
K4R5 141055Z AUTO 26008G15KT 10SM SCT034 SCT050 BKN110 21/19 A3001 RMK AO2 LTG DSNT N T02140185
K4R5 141035Z AUTO 22005KT 10SM SCT031 BKN041 BKN050 21/19 A3001 RMK AO2 LTG DSNT N AND S T02060188
K4R5 141015Z AUTO 00000KT 10SM SCT120 21/19 A3000 RMK AO2 LTG DSNT SW THRU NW T02050185
K4R5 140955Z AUTO 00000KT 10SM SCT120 21/18 A3000 RMK AO2 LTG DSNT W T02050184
K4R5 140935Z AUTO 00000KT 10SM CLR 21/18 A3000 RMK AO2 LTG DSNT SW THRU N T02060183
K4R5 140915Z AUTO 20003KT 10SM CLR 20/18 A2999 RMK AO2 LTG DSNT N T02030184
K4R5 140855Z AUTO 00000KT 10SM CLR 18/18 A3000 RMK AO2 T01840179
K4R5 140835Z AUTO 00000KT 10SM CLR 18/18 A3000 RMK AO2 LTG DSNT N T01800175
K4R5 140815Z AUTO 00000KT 10SM CLR 18/18 A3000 RMK AO2 T01820179
K4R5 140755Z AUTO 00000KT 10SM CLR 19/18 A3000 RMK AO2 LTG DSNT W T01910181
K4R5 140735Z AUTO 00000KT 10SM CLR 20/19 A2999 RMK AO2 T02030185
K4R5 140715Z AUTO 00000KT 10SM CLR 19/18 A2999 RMK AO2 T01880183
K4R5 140655Z AUTO 00000KT 10SM CLR 20/19 A2999 RMK AO2 LTG DSNT SW AND W T02020186
K4R5 140635Z AUTO 00000KT 10SM CLR 21/19 A2999 RMK AO2 LTG DSNT W T02140187
K4R5 140615Z AUTO 17004KT 10SM CLR 22/19 A2998 RMK AO2 T02160187
K4R5 140555Z AUTO 00000KT 10SM CLR 22/19 A2999 RMK AO2 T02200189
K4R5 140535Z AUTO 16006KT 10SM CLR 22/19 A2999 RMK AO2 T02180190
K4R5 140515Z AUTO 20003KT 10SM CLR 21/19 A3000 RMK AO2 T02130189
K4R5 140455Z AUTO 00000KT 10SM CLR 21/19 A2999 RMK AO2 T02120188
K4R5 140435Z AUTO 00000KT 10SM CLR 19/18 A3000 RMK AO2 T01930184
K4R5 140415Z AUTO 00000KT 10SM CLR 18/18 A3000 RMK AO2 T01840182
K4R5 140355Z AUTO 00000KT 10SM CLR 19/19 A3001 RMK AO2 T01900186
K4R5 140335Z AUTO 00000KT 10SM CLR 20/19 A3002 RMK AO2 T01970190
K4R5 140315Z AUTO 00000KT 10SM CLR 21/19 A3002 RMK AO2 T02120191
K4R5 140255Z AUTO 00000KT 10SM SCT042 22/19 A3002 RMK AO2 T02190194
K4R5 140235Z AUTO 00000KT 10SM SCT040 22/19 A3002 RMK AO2 T02210194
K4R5 140215Z AUTO 13003KT 10SM CLR 23/19 A3002 RMK AO2 T02270194
K4R5 140155Z AUTO 14004KT 10SM SCT039 SCT045 23/20 A3002 RMK AO2 T02270195
K4R5 140135Z AUTO 13003KT 10SM OVC039 23/20 A3001 RMK AO2 T02310195
K4R5 140115Z AUTO 13003KT 10SM OVC039 24/20 A3001 RMK AO2 T02350195
K4R5 140055Z AUTO 13003KT 10SM BKN039 23/20 A3000 RMK AO2 T02330196
K4R5 140035Z AUTO 13003KT 10SM SCT040 BKN049 24/20 A3000 RMK AO2 T02360197
K4R5 140015Z AUTO 13003KT 10SM SCT039 OVC049 24/20 A3000 RMK AO2 T02390197
K4R5 132355Z AUTO 12003KT 10SM SCT035 BKN047 24/20 A3000 RMK AO2 T02430198
K4R5 132335Z AUTO 12004KT 10SM SCT035 SCT043 BKN049 25/20 A3000 RMK AO2 T02500199
K4R5 132315Z AUTO 12003KT 10SM SCT035 OVC047 25/20 A3000 RMK AO2 T02490201
K4R5 132255Z AUTO 12003KT 10SM BKN035 BKN043 25/20 A3000 RMK AO2 T02510199
K4R5 132235Z AUTO 15003KT 10SM SCT037 OVC043 25/20 A3000 RMK AO2 T02500200
K4R5 132215Z AUTO 14003KT 10SM BKN037 24/20 A3000 RMK AO2 T02410195
K4R5 132155Z AUTO 13004KT 10SM SCT030 24/19 A3000 RMK AO2 T02430185
K4R5 132135Z AUTO 11004KT 10SM SCT032 25/18 A3000 RMK AO2 T02540182
K4R5 132115Z AUTO 12007KT 10SM CLR 26/18 A3000 RMK AO2 T02550183
K4R5 132055Z AUTO 12006KT 10SM SCT060 26/19 A3001 RMK AO2 T02560186
K4R5 132035Z AUTO 10004KT 10SM SCT038 SCT046 BKN060 25/18 A3002 RMK AO2 T02520184
K4R5 132015Z AUTO 10003KT 10SM SCT031 BKN038 BKN046 24/18 A3003 RMK AO2 T02430179
K4R5 131955Z AUTO 12003KT 10SM BKN031 OVC035 24/18 A3004 RMK AO2 T02400182
K4R5 131935Z AUTO 13003KT 10SM BKN031 BKN042 OVC055 25/18 A3004 RMK AO2 T02460182
K4R5 131915Z AUTO 00000KT 10SM BKN033 BKN044 OVC060 25/18 A3005 RMK AO2 T02460181
K4R5 131855Z AUTO 00000KT 10SM OVC033 25/18 A3005 RMK AO2 T02460178
K4R5 131835Z AUTO 00000KT 10SM OVC033 25/18 A3005 RMK AO2 T02450175
K4R5 131815Z AUTO 00000KT 10SM OVC033 24/17 A3005 RMK AO2 T02410173
K4R5 131755Z AUTO 00000KT 10SM OVC033 23/17 A3005 RMK AO2 T02340170
K4R5 131735Z AUTO 00000KT 10SM OVC035 24/17 A3006 RMK AO2 T02360168
K4R5 131715Z AUTO 09003KT 10SM BKN035 24/17 A3006 RMK AO2 T02410168
K4R5 131655Z AUTO 00000KT 10SM SCT033 SCT085 24/17 A3007 RMK AO2 LTG DSNT W T02360166
K4R5 131635Z AUTO 12004KT 10SM SCT033 BKN070 BKN085 23/16 A3006 RMK AO2 T02250159
K4R5 131615Z AUTO 09003KT 10SM BKN070 BKN085 22/16 A3007 RMK AO2 T02220156
K4R5 131555Z AUTO 12004KT 10SM BKN070 OVC085 22/15 A3007 RMK AO2 T02190152
K4R5 131535Z AUTO 09004KT 10SM BKN085 22/15 A3007 RMK AO2 T02180153
K4R5 131515Z AUTO 10003KT 10SM BKN085 22/16 A3007 RMK AO2 T02220159